Time;durP1;ratioP1;P1;durP2;ratioP2;P2;SDS_P1;SDS_P2;PMS_P1;PMS_P2;Temp;Humidity;BMP_temperature;BMP_pressure;BME280_temperature;BME280_humidity;BME280_pressure;Samples;Min_cycle;Max_cycle;Signal;HPM_P1;HPM_P2
2023/12/12 00:01:21;;;;;;;6.17;2.60;;;;;;;11.23;86.99;97582.19;4139827;28;21232;-93
2023/12/12 00:03:25;;;;;;;9.30;2.90;;;;;;;11.24;86.13;97585.63;4137058;28;20705;-93
2023/12/12 00:05:28;;;;;;;7.57;2.63;;;;;;;11.23;87.48;97584.78;4155799;28;20725;-93
2023/12/12 00:07:31;;;;;;;12.87;3.33;;;;;;;11.22;86.40;97588.34;4127311;28;20631;-94
2023/12/12 00:09:35;;;;;;;9.77;2.73;;;;;;;11.21;87.56;97586.66;4148311;28;20626;-93
2023/12/12 00:11:40;;;;;;;9.27;2.90;;;;;;;11.20;88.00;97589.41;4130950;28;20670;-95
2023/12/12 00:13:44;;;;;;;9.57;3.00;;;;;;;11.18;86.57;97581.69;4144517;28;20628;-93
2023/12/12 00:15:48;;;;;;;8.03;2.63;;;;;;;11.15;86.37;97592.38;4123715;28;20699;-94
2023/12/12 00:17:51;;;;;;;11.00;3.10;;;;;;;11.15;86.78;97591.56;4141566;28;20730;-94
2023/12/12 00:19:55;;;;;;;7.60;2.80;;;;;;;11.13;87.28;97589.06;4128893;28;20662;-96
2023/12/12 00:21:59;;;;;;;9.03;2.87;;;;;;;11.10;86.38;97585.88;4126759;28;21244;-95
2023/12/12 00:24:08;;;;;;;12.13;3.70;;;;;;;11.11;87.18;97585.75;4149986;28;20623;-95
2023/12/12 00:26:12;;;;;;;9.60;3.03;;;;;;;11.10;86.20;97591.91;4136354;28;20631;-94
2023/12/12 00:28:18;;;;;;;9.40;3.20;;;;;;;11.08;87.41;97591.22;4144679;28;20611;-94
2023/12/12 00:30:22;;;;;;;9.10;2.67;;;;;;;11.05;87.64;97585.38;4142426;28;20753;-95
2023/12/12 00:32:25;;;;;;;5.90;2.53;;;;;;;10.98;86.52;97574.59;4142568;28;21569;-93
2023/12/12 00:34:28;;;;;;;10.50;2.87;;;;;;;10.95;86.46;97580.06;4143802;28;21503;-94
2023/12/12 00:36:31;;;;;;;10.47;2.63;;;;;;;10.95;86.15;97595.72;4139823;28;20669;-95
2023/12/12 00:38:34;;;;;;;9.93;3.23;;;;;;;10.92;86.69;97601.16;4128098;28;20675;-93
2023/12/12 00:40:38;;;;;;;12.23;3.97;;;;;;;10.85;87.33;97593.94;4130039;28;21109;-92
2023/12/12 00:42:41;;;;;;;13.37;2.60;;;;;;;10.82;87.16;97588.94;4144695;28;20695;-91
2023/12/12 00:44:45;;;;;;;11.63;2.53;;;;;;;10.82;87.30;97602.84;4130979;28;20627;-92
2023/12/12 00:46:49;;;;;;;10.53;3.07;;;;;;;10.78;87.01;97594.53;4159524;28;20724;-94
2023/12/12 00:48:52;;;;;;;5.30;2.50;;;;;;;10.76;87.16;97599.03;4162591;28;20688;-93
2023/12/12 00:50:56;;;;;;;7.50;3.20;;;;;;;10.73;87.44;97589.66;4163117;28;21461;-96
2023/12/12 00:52:59;;;;;;;8.80;2.50;;;;;;;10.71;88.07;97596.78;4128955;28;20677;-94
2023/12/12 00:55:02;;;;;;;8.37;3.27;;;;;;;10.69;87.74;97593.47;4146940;28;20630;-94
2023/12/12 00:57:06;;;;;;;4.60;2.57;;;;;;;10.70;88.42;97594.28;4146970;28;20622;-91
2023/12/12 00:59:09;;;;;;;5.70;2.83;;;;;;;10.69;87.55;97596.06;4144211;28;20644;-93
2023/12/12 01:01:14;;;;;;;9.93;3.00;;;;;;;10.72;87.50;97592.38;4141371;28;20646;-92
2023/12/12 01:03:18;;;;;;;9.60;3.30;;;;;;;10.76;87.73;97605.06;4142812;28;21072;-95
2023/12/12 01:05:20;;;;;;;8.67;2.73;;;;;;;10.78;88.04;97602.34;4144385;28;20634;-95
2023/12/12 01:07:24;;;;;;;9.17;3.37;;;;;;;10.80;87.67;97600.47;4143294;28;21017;-93
2023/12/12 01:09:27;;;;;;;8.00;3.10;;;;;;;10.79;88.20;97596.19;4162720;28;20625;-92
2023/12/12 01:11:30;;;;;;;6.70;3.10;;;;;;;10.80;88.29;97596.91;4162749;28;20656;-93
2023/12/12 01:13:33;;;;;;;11.47;4.07;;;;;;;10.83;88.68;97596.66;4152093;28;20698;-93
2023/12/12 01:15:37;;;;;;;10.87;3.83;;;;;;;10.87;88.29;97605.09;4149307;28;20622;-93
2023/12/12 01:17:41;;;;;;;6.23;2.77;;;;;;;10.88;88.50;97604.13;4133624;28;20633;-93
2023/12/12 01:19:44;;;;;;;6.40;2.83;;;;;;;10.89;88.09;97597.97;4142410;28;20744;-93
2023/12/12 01:21:48;;;;;;;9.40;2.93;;;;;;;10.85;87.49;97600.00;4143881;28;20689;-96
2023/12/12 01:23:52;;;;;;;6.23;2.83;;;;;;;10.86;88.07;97598.22;4135054;28;20632;-95
2023/12/12 01:25:56;;;;;;;7.93;2.30;;;;;;;10.89;87.23;97605.81;4151170;28;20630;-95
2023/12/12 01:28:00;;;;;;;9.87;3.20;;;;;;;10.91;87.96;97594.28;4160260;28;20629;-95
2023/12/12 01:30:04;;;;;;;7.23;2.70;;;;;;;10.93;87.58;97596.78;4132224;28;20623;-93
2023/12/12 01:32:07;;;;;;;7.00;3.20;;;;;;;10.99;87.05;97607.59;4128549;28;20681;-93
2023/12/12 01:34:12;;;;;;;9.83;3.57;;;;;;;10.98;87.50;97598.09;4148228;28;20634;-91
2023/12/12 01:36:14;;;;;;;8.33;3.60;;;;;;;10.96;88.92;97588.72;4166777;28;20629;-95
2023/12/12 01:38:18;;;;;;;9.07;2.87;;;;;;;10.99;88.98;97594.53;4168745;28;20642;-95
2023/12/12 01:40:22;;;;;;;6.70;2.67;;;;;;;10.98;87.77;97598.09;4147831;28;20692;-94
2023/12/12 01:42:25;;;;;;;6.40;2.73;;;;;;;10.95;87.26;97597.50;4134478;28;20657;-94
2023/12/12 01:44:29;;;;;;;8.27;3.47;;;;;;;10.96;88.33;97591.31;4147801;28;21124;-94
2023/12/12 01:46:36;;;;;;;7.77;3.10;;;;;;;10.97;88.04;97593.81;4118227;28;20652;-94
2023/12/12 01:48:41;;;;;;;8.47;3.20;;;;;;;10.94;87.93;97582.78;4149591;28;20642;-93
2023/12/12 01:50:46;;;;;;;9.17;3.03;;;;;;;10.95;87.27;97582.66;4165286;28;20674;-96
2023/12/12 01:52:50;;;;;;;6.37;2.97;;;;;;;10.98;88.72;97585.03;4145800;28;20993;-95
2023/12/12 01:54:53;;;;;;;8.87;3.37;;;;;;;10.93;87.77;97589.78;4152306;28;20725;-93
2023/12/12 01:56:57;;;;;;;17.40;3.50;;;;;;;10.87;87.71;97577.22;4129506;28;20681;-94
2023/12/12 01:59:02;;;;;;;8.87;3.67;;;;;;;10.86;86.77;97569.53;4130291;28;20628;-93
2023/12/12 02:01:06;;;;;;;8.10;2.87;;;;;;;10.84;88.66;97574.84;4128091;28;20639;-94
2023/12/12 02:03:09;;;;;;;11.57;3.83;;;;;;;10.80;88.66;97573.41;4124725;28;21102;-94
2023/12/12 02:05:13;;;;;;;9.97;3.30;;;;;;;10.80;88.36;97563.97;4128976;28;20628;-93
2023/12/12 02:07:18;;;;;;;9.00;3.40;;;;;;;10.82;88.43;97575.91;4144466;28;20618;-94
2023/12/12 02:09:22;;;;;;;5.97;2.93;;;;;;;10.86;88.52;97586.00;4143816;28;20631;-92
2023/12/12 02:11:25;;;;;;;9.50;3.30;;;;;;;10.86;88.94;97580.78;4125424;28;20641;-90
2023/12/12 02:13:29;;;;;;;11.87;3.33;;;;;;;10.87;88.16;97582.44;4134740;28;20642;-94
2023/12/12 02:15:33;;;;;;;6.13;3.23;;;;;;;10.86;88.21;97564.31;4153835;28;21278;-93
2023/12/12 02:17:35;;;;;;;11.93;3.43;;;;;;;10.89;88.33;97571.91;4134692;28;21531;-93
2023/12/12 02:19:39;;;;;;;11.83;3.40;;;;;;;10.85;88.38;97552.19;4123597;28;20643;-94
2023/12/12 02:21:44;;;;;;;7.07;3.30;;;;;;;10.88;88.90;97565.84;4143311;28;20651;-94
2023/12/12 02:23:51;;;;;;;9.40;3.03;;;;;;;10.89;88.71;97559.66;4144233;28;20641;-95
2023/12/12 02:25:55;;;;;;;7.20;3.17;;;;;;;10.86;88.28;97552.06;4147063;28;20626;-95
2023/12/12 02:28:00;;;;;;;7.37;2.80;;;;;;;10.89;88.65;97564.88;4142212;28;20622;-95
2023/12/12 02:30:06;;;;;;;7.00;3.17;;;;;;;10.85;89.03;97560.88;4162932;28;21242;-92
2023/12/12 02:32:10;;;;;;;7.40;3.03;;;;;;;10.89;88.14;97558.84;4148912;28;20654;-92
2023/12/12 02:34:14;;;;;;;9.27;3.50;;;;;;;10.91;89.36;97551.72;4130310;28;20639;-93
2023/12/12 02:36:20;;;;;;;8.97;3.17;;;;;;;10.90;88.77;97542.25;4131037;28;20690;-95
2023/12/12 02:38:26;;;;;;;5.50;3.10;;;;;;;10.90;87.58;97535.25;4143962;28;20620;-95
2023/12/12 02:40:30;;;;;;;8.20;3.60;;;;;;;10.91;87.47;97531.66;4132695;28;20637;-93
2023/12/12 02:42:33;;;;;;;6.40;3.10;;;;;;;10.95;87.46;97537.50;4137073;28;20750;-93
2023/12/12 02:44:37;;;;;;;8.17;3.27;;;;;;;10.93;88.68;97529.78;4147357;28;20725;-93
2023/12/12 02:46:41;;;;;;;9.60;4.70;;;;;;;10.95;87.06;97538.31;4151906;28;20667;-93
2023/12/12 02:48:44;;;;;;;8.90;3.03;;;;;;;10.98;87.90;97538.06;4135897;28;20626;-92
2023/12/12 02:50:47;;;;;;;13.27;3.73;;;;;;;11.02;88.36;97543.88;4128607;28;20630;-93
2023/12/12 02:52:49;;;;;;;11.43;3.80;;;;;;;11.00;87.26;97551.00;4137170;28;20721;-93
2023/12/12 02:54:54;;;;;;;8.83;3.20;;;;;;;11.01;88.17;97550.06;4123163;28;20627;-93
2023/12/12 02:56:57;;;;;;;7.87;3.50;;;;;;;11.05;87.40;97559.28;4140177;28;20672;-95
2023/12/12 02:59:01;;;;;;;8.63;3.30;;;;;;;11.04;88.14;97544.59;4138702;28;20659;-92
2023/12/12 03:01:05;;;;;;;8.70;3.60;;;;;;;11.07;88.01;97541.75;4143927;28;20654;-94
2023/12/12 03:03:10;;;;;;;6.83;3.40;;;;;;;11.07;87.79;97550.41;4125358;28;20706;-93
2023/12/12 03:05:13;;;;;;;8.47;3.27;;;;;;;11.05;87.76;97546.25;4127929;28;20663;-93
2023/12/12 03:07:16;;;;;;;13.50;5.13;;;;;;;11.05;87.80;97551.47;4128233;28;21201;-93
2023/12/12 03:09:19;;;;;;;8.30;3.37;;;;;;;11.01;87.72;97543.06;4144769;28;21458;-94
2023/12/12 03:11:24;;;;;;;9.17;4.47;;;;;;;10.97;86.70;97540.81;4130856;28;20627;-94
2023/12/12 03:13:28;;;;;;;6.53;3.20;;;;;;;10.93;88.49;97539.38;4141546;28;20649;-95
2023/12/12 03:15:32;;;;;;;11.60;3.50;;;;;;;10.89;88.33;97533.59;4134118;28;20701;-96
2023/12/12 03:17:36;;;;;;;9.27;3.57;;;;;;;10.85;88.32;97532.19;4148371;28;20656;-95
2023/12/12 03:19:40;;;;;;;5.80;3.30;;;;;;;10.82;88.21;97532.41;4148883;28;20634;-95
2023/12/12 03:21:43;;;;;;;8.63;3.10;;;;;;;10.82;88.21;97544.59;4147437;28;21175;-93
2023/12/12 03:23:47;;;;;;;6.70;3.40;;;;;;;10.77;87.71;97538.13;4136472;28;20651;-93
2023/12/12 03:25:49;;;;;;;5.30;3.40;;;;;;;10.75;88.88;97537.38;4138773;28;20661;-93
2023/12/12 03:27:55;;;;;;;9.60;3.97;;;;;;;10.70;88.07;97534.31;4161425;28;20668;-92
2023/12/12 03:29:57;;;;;;;4.63;2.37;;;;;;;10.65;88.38;97532.06;4133610;28;20627;-93
2023/12/12 03:32:01;;;;;;;9.13;3.80;;;;;;;10.62;88.15;97536.69;4140436;28;20690;-93
2023/12/12 03:34:04;;;;;;;6.70;3.23;;;;;;;10.63;88.29;97531.34;4146515;28;20630;-94
2023/12/12 03:36:08;;;;;;;7.07;3.17;;;;;;;10.58;88.40;97532.66;4141269;28;20615;-93
2023/12/12 03:38:13;;;;;;;7.70;2.90;;;;;;;10.56;88.17;97529.34;4145904;28;20617;-93
2023/12/12 03:40:17;;;;;;;8.00;3.60;;;;;;;10.56;88.09;97518.91;4141856;28;20629;-94
2023/12/12 03:42:19;;;;;;;6.30;3.00;;;;;;;10.52;88.55;97505.25;4129989;28;20646;-93
2023/12/12 03:44:24;;;;;;;6.93;2.90;;;;;;;10.48;88.53;97503.03;4147490;28;20673;-95
2023/12/12 03:46:30;;;;;;;5.80;2.63;;;;;;;10.47;89.48;97503.97;4125772;28;20737;-95
2023/12/12 03:48:34;;;;;;;5.30;2.80;;;;;;;10.42;88.69;97514.75;4148809;28;20630;-96
2023/12/12 03:50:38;;;;;;;6.40;2.80;;;;;;;10.40;90.06;97508.84;4133429;28;20683;-94
2023/12/12 03:52:42;;;;;;;10.40;3.30;;;;;;;10.42;89.95;97511.34;4124861;28;20639;-94
2023/12/12 03:54:45;;;;;;;7.50;3.27;;;;;;;10.39;89.67;97511.56;4131476;28;20670;-93
2023/12/12 03:56:51;;;;;;;12.53;3.53;;;;;;;10.39;89.85;97511.56;4144018;28;20611;-93
2023/12/12 03:58:54;;;;;;;6.17;3.20;;;;;;;10.40;90.24;97506.25;4145813;28;20645;-94
2023/12/12 04:01:01;;;;;;;8.23;2.83;;;;;;;10.43;89.64;97507.75;4141565;28;20996;-94
2023/12/12 04:03:04;;;;;;;5.23;2.80;;;;;;;10.42;89.89;97516.53;4143360;28;20684;-94
2023/12/12 04:05:09;;;;;;;5.60;3.50;;;;;;;10.37;90.70;97510.84;4146257;28;20732;-93
2023/12/12 04:07:13;;;;;;;7.00;2.87;;;;;;;10.36;89.61;97511.81;4151312;28;20626;-93
2023/12/12 04:09:17;;;;;;;5.60;2.83;;;;;;;10.34;89.66;97500.63;4126502;28;20634;-94
2023/12/12 04:11:20;;;;;;;12.47;3.77;;;;;;;10.32;89.55;97495.53;4144144;28;20653;-93
2023/12/12 04:13:22;;;;;;;8.77;3.03;;;;;;;10.29;89.39;97494.16;4131142;28;20622;-94
2023/12/12 04:15:26;;;;;;;7.03;3.13;;;;;;;10.22;89.83;97483.34;4127042;28;20631;-93
2023/12/12 04:17:31;;;;;;;8.70;2.80;;;;;;;10.22;89.67;97498.16;4136099;28;20685;-94
2023/12/12 04:19:36;;;;;;;6.60;2.67;;;;;;;10.16;89.74;97486.41;4126671;28;22527;-94
2023/12/12 04:21:41;;;;;;;6.10;2.60;;;;;;;10.17;89.59;97495.06;4126863;28;20743;-94
2023/12/12 04:23:45;;;;;;;8.50;2.97;;;;;;;10.16;89.89;97488.19;4149546;28;20654;-93
2023/12/12 04:25:48;;;;;;;6.80;2.37;;;;;;;10.18;90.01;97489.75;4126887;28;20666;-93
2023/12/12 04:27:52;;;;;;;12.90;3.47;;;;;;;10.23;89.95;97487.63;4144438;28;20641;-93
2023/12/12 04:29:56;;;;;;;4.80;2.33;;;;;;;10.26;90.16;97476.13;4123492;28;20215;-92
2023/12/12 04:31:58;;;;;;;6.90;2.47;;;;;;;10.26;89.71;97478.75;4138948;28;20730;-94
2023/12/12 04:34:03;;;;;;;6.40;3.17;;;;;;;10.23;89.33;97479.78;4156642;28;20638;-92
2023/12/12 04:36:07;;;;;;;6.23;2.50;;;;;;;10.27;90.30;97490.81;4157517;28;20629;-93
2023/12/12 04:38:10;;;;;;;7.43;2.37;;;;;;;10.24;90.03;97488.44;4159699;28;20629;-93
2023/12/12 04:40:14;;;;;;;4.83;2.20;;;;;;;10.21;89.54;97484.31;4148173;28;20689;-95
2023/12/12 04:42:17;;;;;;;8.30;3.07;;;;;;;10.21;89.71;97478.25;4156984;28;20950;-94
2023/12/12 04:44:21;;;;;;;5.87;2.93;;;;;;;10.17;89.78;97480.25;4125315;28;20653;-93
2023/12/12 04:46:24;;;;;;;5.03;2.50;;;;;;;10.12;89.73;97476.38;4127308;28;20670;-94
2023/12/12 04:48:27;;;;;;;7.13;2.80;;;;;;;10.07;89.97;97484.53;4126740;28;20643;-96
2023/12/12 04:50:32;;;;;;;7.50;3.23;;;;;;;10.08;90.64;97486.16;4125961;28;20735;-96
2023/12/12 04:52:36;;;;;;;11.73;3.30;;;;;;;10.06;90.38;97479.44;4147512;28;20708;-94
2023/12/12 04:54:42;;;;;;;5.35;2.50;;;;;;;10.00;91.30;97472.91;4135361;28;20737;-94
2023/12/12 04:56:46;;;;;;;7.60;2.80;;;;;;;9.98;91.36;97468.75;4126510;28;20362;-94
2023/12/12 04:58:49;;;;;;;10.97;3.20;;;;;;;9.97;91.76;97473.13;4138201;28;20626;-94
2023/12/12 05:00:53;;;;;;;8.90;2.70;;;;;;;9.97;91.93;97472.31;4144537;28;20669;-95
2023/12/12 05:02:56;;;;;;;13.47;3.70;;;;;;;9.95;91.83;97468.97;4140528;28;20650;-95
2023/12/12 05:04:59;;;;;;;7.03;3.23;;;;;;;9.93;92.39;97460.44;4129572;28;20663;-96
2023/12/12 05:07:04;;;;;;;8.50;3.40;;;;;;;9.90;92.10;97465.88;4126134;28;20631;-94
2023/12/12 05:09:07;;;;;;;7.90;3.87;;;;;;;9.86;92.63;97454.88;4147710;28;20664;-95
2023/12/12 05:11:13;;;;;;;9.17;3.60;;;;;;;9.84;92.44;97451.53;4125846;28;20631;-92
2023/12/12 05:13:15;;;;;;;9.10;4.00;;;;;;;9.82;92.18;97451.75;4149466;28;20633;-95
2023/12/12 05:15:19;;;;;;;7.40;3.53;;;;;;;9.79;92.42;97463.25;4144766;28;20637;-91
2023/12/12 05:17:22;;;;;;;7.63;3.40;;;;;;;9.75;92.20;97455.78;4123960;28;20620;-95
2023/12/12 05:19:33;;;;;;;7.40;3.50;;;;;;;9.67;91.80;97445.13;4131291;28;20659;-94
2023/12/12 05:22:51;;;;;;;7.40;3.33;;;;;;;9.63;91.79;97451.50;4162197;28;20192;-94
2023/12/12 05:24:55;;;;;;;9.07;3.70;;;;;;;9.57;92.15;97473.59;4139045;28;20666;-94
2023/12/12 05:26:59;;;;;;;9.43;3.65;;;;;;;9.50;90.94;97466.34;4129072;28;21189;-94
2023/12/12 05:29:02;;;;;;;9.90;4.53;;;;;;;9.48;92.01;97473.47;4146593;28;20224;-93
2023/12/12 05:31:06;;;;;;;10.75;4.30;;;;;;;9.43;92.13;97458.19;4134412;28;20204;-95
2023/12/12 05:33:10;;;;;;;12.05;4.32;;;;;;;9.42;92.65;97458.28;4130801;28;20275;-95
2023/12/12 05:35:15;;;;;;;9.15;4.28;;;;;;;9.41;92.14;97465.28;4131260;28;20196;-93
2023/12/12 05:37:20;;;;;;;11.70;4.43;;;;;;;9.37;92.03;97477.78;4137165;28;20316;-93
2023/12/12 05:39:23;;;;;;;10.60;4.07;;;;;;;9.27;91.46;97464.63;4129401;28;20619;-93
2023/12/12 05:41:27;;;;;;;8.70;4.73;;;;;;;9.25;91.94;97460.50;4162064;28;21073;-93
2023/12/12 05:43:31;;;;;;;7.80;4.27;;;;;;;9.20;91.61;97453.03;4146884;28;20618;-95
2023/12/12 05:45:35;;;;;;;9.45;4.13;;;;;;;9.18;92.21;97454.06;4150727;28;20654;-95
2023/12/12 05:47:40;;;;;;;9.20;3.85;;;;;;;9.17;92.35;97452.41;4145042;28;20207;-94
2023/12/12 05:49:44;;;;;;;10.10;4.70;;;;;;;9.10;91.78;97446.81;4148212;28;20211;-93
2023/12/12 05:51:48;;;;;;;6.97;4.15;;;;;;;9.11;92.70;97447.63;4132315;28;22471;-94
2023/12/12 05:53:53;;;;;;;7.32;4.03;;;;;;;9.06;92.77;97436.75;4136938;28;20204;-93
2023/12/12 05:55:57;;;;;;;6.43;3.50;;;;;;;9.06;92.77;97437.56;4132007;28;20568;-93
2023/12/12 05:58:01;;;;;;;9.20;4.38;;;;;;;9.05;92.13;97435.06;4153907;28;20658;-93
2023/12/12 06:00:06;;;;;;;17.33;4.57;;;;;;;9.02;92.90;97440.50;4146811;28;20200;-94
2023/12/12 06:02:16;;;;;;;8.88;4.60;;;;;;;9.02;92.76;97441.34;4160728;28;20655;-94
2023/12/12 06:04:19;;;;;;;9.75;5.03;;;;;;;9.00;92.72;97445.81;4127878;28;20322;-93
2023/12/12 06:06:23;;;;;;;11.25;4.90;;;;;;;9.01;92.48;97442.28;4128989;28;20203;-93
2023/12/12 06:08:26;;;;;;;9.43;4.68;;;;;;;8.96;93.73;97436.59;4153658;28;20231;-92
2023/12/12 06:10:31;;;;;;;16.35;5.20;;;;;;;8.93;93.51;97449.00;4153233;28;20299;-94
2023/12/12 06:12:36;;;;;;;11.43;4.40;;;;;;;8.93;93.61;97446.41;4127564;28;20271;-93
2023/12/12 06:14:39;;;;;;;14.77;5.13;;;;;;;8.91;92.15;97452.63;4126244;28;20205;-95
2023/12/12 06:16:45;;;;;;;11.25;5.15;;;;;;;8.88;92.67;97460.66;4158993;28;20214;-95
2023/12/12 06:18:50;;;;;;;9.07;4.13;;;;;;;8.83;92.53;97466.19;4148834;28;20203;-92
2023/12/12 06:20:54;;;;;;;6.82;4.30;;;;;;;8.83;92.08;97466.19;4132194;28;20898;-95
2023/12/12 06:22:58;;;;;;;10.40;4.30;;;;;;;8.82;93.02;97468.88;4147629;28;20214;-95
2023/12/12 06:25:02;;;;;;;9.73;4.80;;;;;;;8.80;92.78;97471.59;4143181;28;20662;-94
2023/12/12 06:27:07;;;;;;;7.53;4.00;;;;;;;8.78;92.51;97475.25;4164613;28;20312;-93
2023/12/12 06:29:11;;;;;;;8.60;5.00;;;;;;;8.80;92.58;97476.81;4137222;28;20208;-94
2023/12/12 06:31:14;;;;;;;10.00;4.93;;;;;;;8.79;93.22;97466.50;4142561;28;21538;-91
2023/12/12 06:33:18;;;;;;;15.23;4.95;;;;;;;8.80;94.26;97461.19;4128304;28;20643;-93
2023/12/12 06:35:23;;;;;;;12.33;4.60;;;;;;;8.82;94.17;97459.31;4123759;28;20211;-93
2023/12/12 06:37:26;;;;;;;12.02;5.05;;;;;;;8.82;94.04;97463.69;4126158;28;20635;-93
2023/12/12 06:39:30;;;;;;;9.02;5.07;;;;;;;8.79;94.23;97466.50;4143236;28;20438;-94
2023/12/12 06:41:33;;;;;;;10.85;5.50;;;;;;;8.80;94.43;97466.41;4139025;28;20202;-95
2023/12/12 06:43:42;;;;;;;6.90;4.57;;;;;;;8.77;93.63;97464.03;4122671;28;20211;-91
2023/12/12 06:45:46;;;;;;;8.83;4.67;;;;;;;8.76;94.08;97451.94;4122048;28;20249;-92
2023/12/12 06:47:49;;;;;;;10.70;4.35;;;;;;;8.74;93.21;97447.81;4135929;28;20661;-92
2023/12/12 06:49:53;;;;;;;8.35;5.18;;;;;;;8.71;93.17;97435.03;4116785;28;20212;-92
2023/12/12 06:51:56;;;;;;;9.00;4.60;;;;;;;8.72;93.69;97440.13;4132417;28;20784;-90
2023/12/12 06:53:59;;;;;;;10.35;5.20;;;;;;;8.74;93.16;97442.63;4137462;28;20206;-89
2023/12/12 06:56:03;;;;;;;12.10;5.32;;;;;;;8.75;93.96;97432.13;4118497;28;20220;-90
2023/12/12 06:58:06;;;;;;;11.45;4.95;;;;;;;8.74;94.40;97427.03;4133902;28;20230;-90
2023/12/12 07:00:12;;;;;;;10.20;5.10;;;;;;;8.74;94.01;97425.25;4120440;28;20233;-91
2023/12/12 07:02:16;;;;;;;10.68;4.45;;;;;;;8.70;94.16;97418.59;4118376;28;20720;-93
2023/12/12 07:04:19;;;;;;;19.38;6.20;;;;;;;8.65;94.28;97407.72;4137344;28;20214;-93
2023/12/12 07:06:22;;;;;;;13.20;4.87;;;;;;;8.67;94.62;97424.00;4139728;28;20294;-93
2023/12/12 07:08:26;;;;;;;14.60;5.15;;;;;;;8.67;94.84;97416.22;4125482;28;20640;-92
2023/12/12 07:10:29;;;;;;;7.07;4.70;;;;;;;8.65;95.39;97414.69;4153182;28;20199;-92
2023/12/12 07:12:33;;;;;;;8.50;4.90;;;;;;;8.65;96.17;97412.91;4139586;28;20999;-92
2023/12/12 07:14:36;;;;;;;7.22;3.95;;;;;;;8.66;94.52;97419.78;4141726;28;20302;-93
2023/12/12 07:16:41;;;;;;;8.10;4.53;;;;;;;8.68;94.47;97417.06;4151047;28;20308;-92
2023/12/12 07:18:46;;;;;;;5.82;4.30;;;;;;;8.65;95.32;97418.09;4136449;28;20208;-96
2023/12/12 07:20:49;;;;;;;8.65;4.25;;;;;;;8.69;95.01;97423.91;4127732;28;20208;-95
2023/12/12 07:34:15;;;;;;;14.07;7.30;;;;;;;8.74;94.43;97440.03;4122262;28;20223;-92
2023/12/12 07:36:18;;;;;;;14.30;8.02;;;;;;;8.73;95.54;97441.78;4100978;28;20214;-91
2023/12/12 07:38:21;;;;;;;14.23;6.93;;;;;;;8.70;94.90;97443.75;4095792;28;20216;-86
2023/12/12 07:40:25;;;;;;;11.98;5.82;;;;;;;8.69;95.04;97437.75;4126756;28;20744;-92
2023/12/12 07:42:29;;;;;;;15.57;6.95;;;;;;;8.68;95.47;97432.66;4106369;28;20262;-92
2023/12/12 07:44:33;;;;;;;13.15;6.55;;;;;;;8.67;95.49;97434.41;4111765;28;20220;-89
2023/12/12 07:46:37;;;;;;;12.97;6.80;;;;;;;8.66;94.88;97435.38;4121857;28;20276;-87
2023/12/12 07:48:41;;;;;;;9.88;5.32;;;;;;;8.67;95.00;97429.22;4124054;28;21038;-88
2023/12/12 07:50:46;;;;;;;7.33;5.17;;;;;;;8.68;94.94;97433.47;4097276;28;20220;-88
2023/12/12 07:52:48;;;;;;;12.32;5.65;;;;;;;8.68;94.48;97425.69;4111183;28;20620;-89
2023/12/12 07:54:51;;;;;;;12.75;5.32;;;;;;;8.71;95.32;97424.66;4122289;28;20604;-91
2023/12/12 07:56:54;;;;;;;11.50;5.70;;;;;;;8.73;95.34;97420.16;4096569;28;20252;-92
2023/12/12 07:58:57;;;;;;;11.77;6.90;;;;;;;8.70;95.09;97409.97;4129329;28;20208;-89
2023/12/12 08:01:00;;;;;;;10.40;6.30;;;;;;;8.70;95.61;97412.56;4113179;28;20293;-93
2023/12/12 08:03:05;;;;;;;12.38;6.45;;;;;;;8.74;95.01;97425.25;4126325;28;20200;-92
2023/12/12 08:05:09;;;;;;;12.43;5.93;;;;;;;8.80;96.62;97419.59;4124621;28;20606;-94
2023/12/12 08:07:13;;;;;;;10.52;5.60;;;;;;;8.82;95.74;97416.91;4115069;28;20455;-93
2023/12/12 08:09:17;;;;;;;10.52;5.90;;;;;;;8.86;96.30;97413.16;4127194;28;20295;-92
2023/12/12 08:11:24;;;;;;;9.27;5.95;;;;;;;8.90;96.56;97422.38;4107691;28;20205;-92
2023/12/12 08:13:28;;;;;;;9.68;5.65;;;;;;;8.93;96.25;97428.19;4105765;28;20215;-91
2023/12/12 08:15:31;;;;;;;11.15;6.47;;;;;;;8.97;95.53;97432.22;4118544;28;20573;-93
2023/12/12 08:17:35;;;;;;;9.65;5.75;;;;;;;9.04;96.30;97438.63;4109220;28;20790;-92
2023/12/12 08:19:39;;;;;;;9.82;5.80;;;;;;;9.05;95.73;97425.53;4102710;28;20272;-91
2023/12/12 08:21:42;;;;;;;11.70;5.55;;;;;;;9.09;95.35;97434.75;4128586;28;20212;-93
2023/12/12 08:23:48;;;;;;;9.97;5.20;;;;;;;9.12;95.21;97439.72;4127898;28;20223;-92
2023/12/12 08:25:52;;;;;;;13.18;7.70;;;;;;;9.15;95.12;97431.69;4128024;28;20717;-92
2023/12/12 08:27:57;;;;;;;11.75;7.75;;;;;;;9.18;94.50;97430.66;4114192;28;20220;-92
2023/12/12 08:30:04;;;;;;;12.47;8.13;;;;;;;9.19;94.25;97430.53;4113448;28;20211;-93
2023/12/12 08:32:07;;;;;;;13.00;7.72;;;;;;;9.24;94.91;97433.63;4086447;28;20668;-92
2023/12/12 08:34:11;;;;;;;13.85;7.55;;;;;;;9.27;95.16;97416.97;4107071;28;20318;-93
2023/12/12 08:36:14;;;;;;;10.82;6.40;;;;;;;9.30;94.75;97395.94;4103253;28;20204;-93
2023/12/12 08:38:17;;;;;;;14.87;7.77;;;;;;;9.36;94.24;97385.06;4094487;28;20736;-91
2023/12/12 08:40:22;;;;;;;15.97;6.90;;;;;;;9.41;94.37;97375.94;4110330;28;20640;-89
2023/12/12 08:42:26;;;;;;;12.02;6.68;;;;;;;9.42;94.64;97357.63;4092146;28;20640;-90
2023/12/12 08:44:29;;;;;;;11.77;6.17;;;;;;;9.45;94.98;97360.00;4075988;29;20215;-91
2023/12/12 08:46:32;;;;;;;10.43;7.32;;;;;;;9.47;94.60;97357.28;4085873;28;20657;-89
2023/12/12 08:48:36;;;;;;;18.20;10.77;;;;;;;9.48;94.33;97348.53;4083155;29;20217;-89
2023/12/12 08:50:39;;;;;;;14.95;7.93;;;;;;;9.48;95.05;97349.34;4104695;28;20628;-90
2023/12/12 08:52:43;;;;;;;10.13;6.50;;;;;;;9.56;95.06;97351.38;4082571;29;20856;-91
2023/12/12 08:54:46;;;;;;;11.55;5.80;;;;;;;9.61;94.46;97349.28;4095273;28;20206;-86
2023/12/12 08:56:52;;;;;;;8.40;5.70;;;;;;;9.63;94.86;97344.78;4103790;28;20288;-90
2023/12/12 08:58:56;;;;;;;14.68;5.85;;;;;;;9.67;94.96;97338.41;4108702;28;20581;-90
2023/12/12 09:00:59;;;;;;;14.02;7.50;;;;;;;9.70;94.71;97343.38;4095929;28;20237;-91
2023/12/12 09:03:02;;;;;;;10.23;7.57;;;;;;;9.74;94.92;97342.16;4093639;28;20197;-91
2023/12/12 09:05:07;;;;;;;13.98;8.60;;;;;;;9.73;94.94;97336.13;4109394;28;20208;-90
2023/12/12 09:07:10;;;;;;;13.20;7.60;;;;;;;9.71;94.65;97330.22;4095443;28;20225;-89
2023/12/12 09:09:14;;;;;;;11.67;7.70;;;;;;;9.74;94.69;97336.97;4088034;28;20626;-89
2023/12/12 09:11:17;;;;;;;12.40;7.40;;;;;;;9.78;94.78;97330.56;4092776;28;21061;-90
2023/12/12 09:13:22;;;;;;;11.60;6.93;;;;;;;9.79;95.00;97332.22;4084163;28;20207;-90
2023/12/12 09:15:25;;;;;;;17.23;8.20;;;;;;;9.82;94.59;97339.78;4111252;28;20620;-91
2023/12/12 09:17:28;;;;;;;10.80;6.93;;;;;;;9.86;95.09;97345.50;4096169;28;20264;-89
2023/12/12 09:19:33;;;;;;;11.52;6.50;;;;;;;9.92;94.94;97357.19;4109563;28;20627;-89
2023/12/12 09:21:36;;;;;;;9.75;6.00;;;;;;;9.99;94.98;97382.69;4100068;28;20224;-89
2023/12/12 09:23:40;;;;;;;9.27;5.97;;;;;;;10.00;95.39;97379.13;4093778;28;20260;-93
2023/12/12 09:25:44;;;;;;;10.02;5.82;;;;;;;10.01;94.82;97369.53;4092753;28;20210;-90
2023/12/12 09:27:50;;;;;;;10.13;5.25;;;;;;;10.01;95.15;97357.38;4101968;28;20217;-90
2023/12/12 09:29:54;;;;;;;9.20;5.03;;;;;;;10.02;94.73;97351.19;4108575;28;20200;-89
2023/12/12 09:31:58;;;;;;;7.43;4.70;;;;;;;10.02;94.63;97345.97;4106633;28;21079;-93
2023/12/12 09:34:02;;;;;;;9.57;5.43;;;;;;;9.98;94.38;97343.72;4090456;28;20648;-91
2023/12/12 09:36:07;;;;;;;9.55;5.30;;;;;;;9.97;94.75;97336.88;4103036;28;20695;-90
2023/12/12 09:38:11;;;;;;;12.37;6.00;;;;;;;9.96;94.52;97336.03;4091423;28;20201;-92
2023/12/12 09:40:15;;;;;;;11.95;6.03;;;;;;;10.01;94.60;97322.66;4109191;28;21198;-91
2023/12/12 09:42:18;;;;;;;9.70;6.80;;;;;;;10.03;95.11;97312.97;4112466;28;20209;-89
2023/12/12 09:44:21;;;;;;;11.50;7.57;;;;;;;10.08;94.77;97298.59;4100574;28;20628;-91
2023/12/12 09:46:26;;;;;;;14.65;7.85;;;;;;;10.12;96.08;97307.84;4093501;28;21041;-93
2023/12/12 09:48:29;;;;;;;14.85;8.02;;;;;;;10.16;95.98;97301.41;4094533;28;20201;-94
2023/12/12 09:50:33;;;;;;;11.43;7.40;;;;;;;10.21;95.45;97307.13;4098259;28;20210;-93
2023/12/12 09:52:37;;;;;;;14.33;7.63;;;;;;;10.29;95.18;97302.13;4112426;28;20643;-92
2023/12/12 09:54:40;;;;;;;10.98;6.60;;;;;;;10.35;95.71;97299.84;4097981;28;20728;-93
2023/12/12 09:56:44;;;;;;;8.73;6.63;;;;;;;10.39;95.62;97290.84;4113639;28;20209;-92